createdAt,value
2022-07-31T01:35:59.206Z,23.90
2022-07-31T02:15:27.920Z,23.60
2022-07-31T06:56:39.743Z,26.90
2022-07-31T08:01:19.179Z,30.10
2022-07-31T08:04:00.159Z,30.20
2022-07-31T08:15:02.467Z,30.40
2022-07-31T08:17:58.165Z,30.40
2022-07-31T08:51:54.633Z,30.70
2022-07-31T08:54:55.071Z,30.80
2022-07-31T08:57:30.291Z,30.70
2022-07-31T09:00:29.316Z,30.80
2022-07-31T09:03:04.803Z,29.50
2022-07-31T09:05:59.723Z,30.80
2022-07-31T09:08:37.865Z,30.90
2022-07-31T09:11:15.075Z,31.00
2022-07-31T09:14:29.495Z,31.00
2022-07-31T09:17:04.048Z,31.10
2022-07-31T09:19:53.944Z,31.00
2022-07-31T09:22:38.617Z,31.00
2022-07-31T09:25:19.494Z,31.00
2022-07-31T09:28:02.767Z,31.00
2022-07-31T09:30:36.255Z,31.20
2022-07-31T09:33:48.025Z,31.20
2022-07-31T09:36:39.021Z,31.20
2022-07-31T09:42:48.601Z,31.30
2022-07-31T09:45:33.653Z,31.30
2022-07-31T09:48:12.762Z,31.40
2022-07-31T09:53:48.035Z,31.70
2022-07-31T09:57:14.741Z,31.70
2022-07-31T10:03:52.335Z,31.90
2022-07-31T10:06:28.279Z,31.90
2022-07-31T10:09:04.662Z,31.70
2022-07-31T10:12:16.485Z,31.70
2022-07-31T10:14:54.392Z,31.70
2022-07-31T10:17:36.189Z,31.70
2022-07-31T10:20:24.660Z,31.70
2022-07-31T10:23:33.805Z,31.80
2022-07-31T10:26:09.941Z,31.80
2022-07-31T10:28:43.770Z,31.80
2022-07-31T10:36:59.681Z,32.30
2022-07-31T10:40:01.278Z,32.50
2022-07-31T10:46:50.816Z,32.40
2022-07-31T10:49:49.481Z,32.60
2022-07-31T10:52:32.814Z,32.70
2022-07-31T10:55:25.552Z,32.70
2022-07-31T10:58:20.217Z,32.80
2022-07-31T11:01:10.068Z,32.90
2022-07-31T11:03:49.990Z,32.90
2022-07-31T11:06:41.769Z,33.00
2022-07-31T11:13:18.107Z,33.10
2022-07-31T11:15:53.130Z,33.10
2022-07-31T11:19:09.849Z,33.10
2022-07-31T11:21:43.431Z,33.20
2022-07-31T11:24:18.847Z,33.20
2022-07-31T11:30:01.876Z,33.20
2022-07-31T11:35:10.450Z,33.40
2022-07-31T11:38:47.619Z,33.40
2022-07-31T11:41:24.033Z,33.40
2022-07-31T11:43:57.973Z,33.40
2022-07-31T11:52:30.743Z,33.50
2022-07-31T11:55:12.671Z,33.70
2022-07-31T11:57:52.221Z,33.60
2022-07-31T12:00:28.970Z,33.60
2022-07-31T12:03:04.830Z,33.60
2022-07-31T12:05:45.725Z,33.70
2022-07-31T12:08:19.796Z,33.50
2022-07-31T12:10:55.040Z,33.40
2022-07-31T12:13:28.891Z,33.50
2022-07-31T12:16:08.514Z,33.60
2022-07-31T12:18:52.822Z,33.80
2022-07-31T12:21:35.273Z,34.00
2022-07-31T12:24:15.955Z,34.00
2022-07-31T12:26:55.073Z,34.10
2022-07-31T12:29:55.147Z,32.90
2022-07-31T12:33:32.587Z,34.20
2022-07-31T12:36:16.235Z,34.40
2022-07-31T12:39:01.238Z,34.40
2022-07-31T12:42:41.943Z,34.50
2022-07-31T12:49:57.322Z,34.50
2022-07-31T12:52:32.602Z,34.60
2022-07-31T12:56:07.952Z,34.60
2022-07-31T12:58:41.551Z,34.70
2022-07-31T13:01:14.919Z,34.70
2022-07-31T13:03:52.350Z,34.70
2022-07-31T13:06:28.831Z,34.70
2022-07-31T13:09:03.892Z,34.80
2022-07-31T13:11:46.836Z,34.80
2022-07-31T13:14:26.846Z,34.70
2022-07-31T13:17:00.190Z,34.80
2022-07-31T13:19:34.280Z,34.80
2022-07-31T13:22:07.703Z,34.80
2022-07-31T13:24:41.539Z,34.80
2022-07-31T13:27:15.076Z,34.90
2022-07-31T13:29:48.594Z,35.00
2022-07-31T13:32:22.426Z,35.00
2022-07-31T13:35:23.888Z,35.10
2022-07-31T13:37:55.626Z,35.10
2022-07-31T13:44:05.165Z,35.20
2022-07-31T13:46:40.363Z,35.20
2022-07-31T13:49:13.645Z,35.10
2022-07-31T13:51:47.632Z,35.00
2022-07-31T13:54:22.099Z,35.00
2022-07-31T13:56:56.428Z,34.90
2022-07-31T13:59:29.917Z,34.90
2022-07-31T14:02:05.720Z,35.00
2022-07-31T14:07:13.167Z,35.10
2022-07-31T14:09:54.689Z,35.20
2022-07-31T14:13:06.579Z,35.20
2022-07-31T14:15:41.629Z,35.30
2022-07-31T14:18:15.063Z,35.30
2022-07-31T14:20:48.441Z,35.40
2022-07-31T14:23:34.217Z,35.40
2022-07-31T14:26:09.326Z,35.40
2022-07-31T14:28:44.910Z,35.40
2022-07-31T14:31:18.434Z,35.40
2022-07-31T14:33:51.789Z,35.50
2022-07-31T14:36:25.342Z,35.30
2022-07-31T14:38:58.711Z,35.40
2022-07-31T14:41:32.334Z,35.40
2022-07-31T14:44:06.372Z,35.50
2022-07-31T14:46:39.956Z,35.40
2022-07-31T14:49:13.610Z,35.40
2022-07-31T14:51:47.222Z,35.50
2022-07-31T14:54:20.188Z,35.60
2022-07-31T14:59:35.213Z,35.60
2022-07-31T15:02:08.900Z,34.80
2022-07-31T15:04:42.733Z,35.50
2022-07-31T15:07:46.654Z,35.50
2022-07-31T15:10:20.612Z,35.50
2022-07-31T15:12:53.549Z,35.50
2022-07-31T15:15:28.575Z,35.50
2022-07-31T15:18:02.112Z,35.50
2022-07-31T15:20:36.682Z,35.50
2022-07-31T15:23:09.711Z,35.50
2022-07-31T15:25:42.803Z,35.60
2022-07-31T15:28:16.040Z,35.60
2022-07-31T15:30:48.779Z,35.50
2022-07-31T15:33:24.590Z,35.50
2022-07-31T15:35:57.338Z,35.40
2022-07-31T15:38:30.159Z,35.30
2022-07-31T15:41:05.153Z,35.20
2022-07-31T15:43:41.350Z,35.20
2022-07-31T15:46:13.811Z,35.20
2022-07-31T15:48:47.707Z,35.20
2022-07-31T15:51:53.466Z,35.20
2022-07-31T15:54:27.642Z,35.20
2022-07-31T15:57:03.608Z,35.30
2022-07-31T15:59:36.591Z,35.20
2022-07-31T16:08:30.535Z,34.90
2022-07-31T16:10:19.186Z,34.90
2022-07-31T16:12:52.288Z,34.90
2022-07-31T16:15:26.365Z,34.90
2022-07-31T16:17:59.609Z,34.90
2022-07-31T16:20:32.832Z,34.90
2022-07-31T16:23:06.115Z,34.90
2022-07-31T16:25:39.955Z,34.90
2022-07-31T16:28:12.647Z,34.80
2022-07-31T16:35:12.665Z,34.70
2022-07-31T16:37:51.195Z,34.70
2022-07-31T16:40:30.205Z,34.70
2022-07-31T16:43:50.021Z,33.00
2022-07-31T16:46:00.129Z,34.70
2022-07-31T16:48:32.785Z,34.60
2022-07-31T16:51:07.068Z,34.60
2022-07-31T16:54:13.757Z,34.50
2022-07-31T16:56:33.110Z,34.40
2022-07-31T16:59:08.217Z,34.40
2022-07-31T17:01:54.045Z,34.20
2022-07-31T17:04:34.823Z,34.20
2022-07-31T17:07:07.757Z,34.20
2022-07-31T17:12:14.688Z,34.00
2022-07-31T17:14:49.187Z,34.00
2022-07-31T17:17:22.310Z,33.80
2022-07-31T17:19:55.353Z,33.80
2022-07-31T17:22:28.221Z,33.70
2022-07-31T17:25:04.008Z,33.70
2022-07-31T17:27:36.702Z,33.70
2022-07-31T17:30:35.946Z,33.70
2022-07-31T17:37:44.673Z,33.60
2022-07-31T17:40:41.900Z,33.50
2022-07-31T17:43:10.038Z,33.40
2022-07-31T17:45:59.798Z,33.30
2022-07-31T17:49:01.100Z,33.30
2022-07-31T17:51:35.682Z,33.20
2022-07-31T17:56:45.275Z,33.10
2022-07-31T18:01:13.086Z,33.00
2022-07-31T18:04:12.957Z,32.80
2022-07-31T18:06:54.403Z,32.80
2022-07-31T18:10:20.772Z,32.70
2022-07-31T18:15:34.521Z,32.40
2022-07-31T18:18:08.759Z,32.30
2022-07-31T18:21:06.963Z,32.10
2022-07-31T18:23:47.230Z,32.00
2022-07-31T18:28:55.015Z,31.70
2022-07-31T18:31:34.279Z,31.50
2022-07-31T18:34:09.086Z,31.50
2022-07-31T18:36:43.488Z,31.40
2022-07-31T18:48:35.946Z,30.80
2022-07-31T18:51:08.957Z,30.70
2022-07-31T18:53:42.984Z,30.60
2022-07-31T18:56:16.266Z,30.50
2022-07-31T18:58:49.133Z,30.30
2022-07-31T19:03:57.814Z,30.10
2022-07-31T19:06:31.035Z,30.10
2022-07-31T19:09:05.420Z,30.00
2022-07-31T19:11:39.074Z,29.90
2022-07-31T19:14:14.780Z,29.90
2022-07-31T19:16:48.790Z,29.80
2022-07-31T19:22:02.512Z,29.70
2022-07-31T19:29:43.444Z,29.40
2022-07-31T19:32:16.708Z,29.30
2022-07-31T19:34:52.384Z,29.20
2022-07-31T19:37:25.821Z,29.10
2022-07-31T19:39:59.034Z,29.00
2022-07-31T19:42:32.607Z,28.90
2022-07-31T19:45:06.547Z,28.90
2022-07-31T19:47:40.104Z,28.90
2022-07-31T19:52:47.670Z,28.70
2022-07-31T19:55:21.305Z,28.60
2022-07-31T19:57:54.907Z,28.60
2022-07-31T20:00:28.815Z,28.60
2022-07-31T20:03:02.237Z,28.50
2022-07-31T20:05:35.620Z,28.40
2022-07-31T20:08:09.060Z,28.30
2022-07-31T20:10:42.509Z,28.30
2022-07-31T20:13:15.780Z,28.30
2022-07-31T20:15:52.660Z,28.10
2022-07-31T20:18:30.064Z,28.10
2022-07-31T20:21:09.313Z,28.10
2022-07-31T20:23:43.007Z,27.90
2022-07-31T20:26:16.975Z,27.90
2022-07-31T20:39:06.795Z,27.70
2022-07-31T20:46:48.406Z,27.70
2022-07-31T20:52:10.329Z,27.70
2022-07-31T21:03:24.965Z,27.40
2022-07-31T21:08:32.732Z,27.40
2022-07-31T21:13:38.599Z,27.30
2022-07-31T21:18:44.211Z,27.20
2022-07-31T21:21:18.095Z,27.10
2022-07-31T21:23:51.077Z,27.20
2022-07-31T21:29:01.079Z,27.00
2022-07-31T21:31:34.132Z,27.10
2022-07-31T21:34:07.152Z,27.10
2022-07-31T21:36:40.079Z,27.10
2022-07-31T21:39:18.544Z,27.10
2022-07-31T21:41:53.282Z,27.10
2022-07-31T21:44:26.496Z,27.10
2022-07-31T21:47:03.121Z,27.10
2022-07-31T21:49:36.799Z,23.20
2022-07-31T21:52:10.129Z,26.90
2022-07-31T21:57:15.952Z,26.80
2022-07-31T21:59:48.684Z,26.80
2022-07-31T22:02:21.687Z,26.70
2022-07-31T22:05:12.978Z,26.70
2022-07-31T22:07:47.563Z,26.70
2022-07-31T22:10:23.758Z,26.70
2022-07-31T22:12:56.448Z,26.60
2022-07-31T22:15:58.106Z,26.60
2022-07-31T22:18:21.891Z,26.60
2022-07-31T22:20:54.997Z,26.70
2022-07-31T22:23:29.056Z,26.70
2022-07-31T22:26:02.582Z,26.60
2022-07-31T22:28:35.787Z,26.80
2022-07-31T22:31:10.658Z,26.80
2022-07-31T22:33:43.493Z,26.90
2022-07-31T22:36:16.393Z,26.70
2022-07-31T22:38:50.035Z,26.90
2022-07-31T22:41:22.932Z,26.90
2022-07-31T22:44:12.634Z,23.00
2022-07-31T22:46:48.847Z,26.90
2022-07-31T22:49:22.111Z,27.00
2022-07-31T22:51:54.934Z,27.00
2022-07-31T22:54:27.805Z,27.00
2022-07-31T22:57:00.733Z,27.00
2022-07-31T22:59:33.483Z,27.00
2022-07-31T23:02:09.235Z,27.00
2022-07-31T23:09:48.888Z,26.90
2022-07-31T23:17:33.771Z,24.50
2022-07-31T23:20:07.396Z,26.90
2022-07-31T23:22:40.535Z,26.90
2022-07-31T23:25:15.113Z,26.80
2022-07-31T23:27:47.796Z,26.70
2022-07-31T23:30:20.448Z,26.70
2022-07-31T23:32:53.513Z,26.60
2022-07-31T23:35:26.160Z,26.50
2022-07-31T23:40:31.805Z,26.40
2022-07-31T23:43:04.790Z,26.40
2022-07-31T23:45:37.633Z,26.30
2022-07-31T23:48:13.350Z,26.30
2022-07-31T23:53:20.815Z,26.10
2022-07-31T23:58:26.647Z,26.10
